Terminal Aerodrome Forecast
Issued by NWS

Home | Current Version | Previous Version | Text Only | Print | Product List | Glossary On
Versions: 1 2 3 4 5 6 7 8 9 10 11 12
000
FTUS45 KREV 231740
TAFCXP
TAF
KCXP 231740Z 2318/2418 VRB03KT P6SM FEW200
     FM232100 10008KT P6SM SCT200
     FM240200 VRB03KT P6SM BKN200
     FM241500 20009G16KT P6SM BKN200=

USA.gov is the U.S. government's official web portal to all federal, state and local government web resources and services.